sensor_id;sensor_type;location;lat;lon;timestamp;P1;durP1;ratioP1;P2;durP2;ratioP2
57467;SDS011;43311;51.196;7.518;2023-08-08T00:00:46;5.60;;;2.42;;
57467;SDS011;43311;51.196;7.518;2023-08-08T00:03:13;4.60;;;2.70;;
57467;SDS011;43311;51.196;7.518;2023-08-08T00:05:38;3.83;;;2.45;;
57467;SDS011;43311;51.196;7.518;2023-08-08T00:08:04;3.70;;;2.67;;
57467;SDS011;43311;51.196;7.518;2023-08-08T00:10:29;7.40;;;3.40;;
57467;SDS011;43311;51.196;7.518;2023-08-08T00:12:55;6.82;;;2.35;;
57467;SDS011;43311;51.196;7.518;2023-08-08T00:15:20;5.22;;;2.60;;
57467;SDS011;43311;51.196;7.518;2023-08-08T00:17:46;3.85;;;2.70;;
57467;SDS011;43311;51.196;7.518;2023-08-08T00:20:11;6.55;;;2.85;;
57467;SDS011;43311;51.196;7.518;2023-08-08T00:22:37;4.07;;;2.70;;
57467;SDS011;43311;51.196;7.518;2023-08-08T00:25:03;5.45;;;3.03;;
57467;SDS011;43311;51.196;7.518;2023-08-08T00:27:28;6.72;;;3.25;;
57467;SDS011;43311;51.196;7.518;2023-08-08T00:29:54;6.45;;;3.30;;
57467;SDS011;43311;51.196;7.518;2023-08-08T00:32:20;9.15;;;3.72;;
57467;SDS011;43311;51.196;7.518;2023-08-08T00:34:45;6.35;;;3.50;;
57467;SDS011;43311;51.196;7.518;2023-08-08T00:37:11;6.97;;;3.08;;
57467;SDS011;43311;51.196;7.518;2023-08-08T00:39:36;5.25;;;3.42;;
57467;SDS011;43311;51.196;7.518;2023-08-08T00:42:02;5.82;;;2.90;;
57467;SDS011;43311;51.196;7.518;2023-08-08T00:44:27;9.98;;;3.65;;
57467;SDS011;43311;51.196;7.518;2023-08-08T00:46:53;6.45;;;4.07;;
57467;SDS011;43311;51.196;7.518;2023-08-08T00:49:19;6.07;;;3.97;;
57467;SDS011;43311;51.196;7.518;2023-08-08T00:51:45;9.27;;;3.42;;
57467;SDS011;43311;51.196;7.518;2023-08-08T00:54:11;8.35;;;4.00;;
57467;SDS011;43311;51.196;7.518;2023-08-08T00:56:38;7.38;;;3.40;;
57467;SDS011;43311;51.196;7.518;2023-08-08T00:59:03;6.63;;;3.65;;
57467;SDS011;43311;51.196;7.518;2023-08-08T01:01:29;6.65;;;3.70;;
57467;SDS011;43311;51.196;7.518;2023-08-08T01:03:54;8.65;;;3.60;;
57467;SDS011;43311;51.196;7.518;2023-08-08T01:06:27;5.80;;;3.80;;
57467;SDS011;43311;51.196;7.518;2023-08-08T01:11:42;5.70;;;3.33;;
57467;SDS011;43311;51.196;7.518;2023-08-08T01:14:13;7.85;;;3.70;;
57467;SDS011;43311;51.196;7.518;2023-08-08T01:16:40;9.48;;;3.20;;
57467;SDS011;43311;51.196;7.518;2023-08-08T01:19:07;9.85;;;3.63;;
57467;SDS011;43311;51.196;7.518;2023-08-08T01:21:33;5.47;;;3.67;;
57467;SDS011;43311;51.196;7.518;2023-08-08T01:24:24;8.90;;;3.35;;
57467;SDS011;43311;51.196;7.518;2023-08-08T01:26:54;5.80;;;3.40;;
57467;SDS011;43311;51.196;7.518;2023-08-08T01:29:21;7.15;;;3.33;;
57467;SDS011;43311;51.196;7.518;2023-08-08T01:31:46;6.32;;;3.58;;
57467;SDS011;43311;51.196;7.518;2023-08-08T01:34:12;6.68;;;3.53;;
57467;SDS011;43311;51.196;7.518;2023-08-08T01:36:42;6.57;;;3.83;;
57467;SDS011;43311;51.196;7.518;2023-08-08T01:39:13;5.22;;;3.28;;
57467;SDS011;43311;51.196;7.518;2023-08-08T01:41:42;5.53;;;3.55;;
57467;SDS011;43311;51.196;7.518;2023-08-08T01:44:09;8.18;;;3.35;;
57467;SDS011;43311;51.196;7.518;2023-08-08T01:46:37;7.80;;;3.60;;
57467;SDS011;43311;51.196;7.518;2023-08-08T01:49:03;7.43;;;3.25;;
57467;SDS011;43311;51.196;7.518;2023-08-08T01:51:29;7.88;;;3.60;;
57467;SDS011;43311;51.196;7.518;2023-08-08T01:53:54;8.35;;;4.32;;
57467;SDS011;43311;51.196;7.518;2023-08-08T01:56:20;7.97;;;3.90;;
57467;SDS011;43311;51.196;7.518;2023-08-08T01:58:45;7.72;;;3.90;;
57467;SDS011;43311;51.196;7.518;2023-08-08T02:01:11;7.30;;;4.63;;
57467;SDS011;43311;51.196;7.518;2023-08-08T02:03:36;8.38;;;4.18;;
57467;SDS011;43311;51.196;7.518;2023-08-08T02:06:03;7.43;;;3.88;;
57467;SDS011;43311;51.196;7.518;2023-08-08T02:08:29;6.38;;;3.90;;
57467;SDS011;43311;51.196;7.518;2023-08-08T02:10:54;5.57;;;3.65;;
57467;SDS011;43311;51.196;7.518;2023-08-08T02:13:20;9.85;;;4.50;;
57467;SDS011;43311;51.196;7.518;2023-08-08T02:15:47;11.82;;;4.05;;
57467;SDS011;43311;51.196;7.518;2023-08-08T02:18:12;9.98;;;4.10;;
57467;SDS011;43311;51.196;7.518;2023-08-08T02:20:37;7.18;;;4.55;;
57467;SDS011;43311;51.196;7.518;2023-08-08T02:23:04;7.20;;;3.97;;
57467;SDS011;43311;51.196;7.518;2023-08-08T02:25:30;7.97;;;4.57;;
57467;SDS011;43311;51.196;7.518;2023-08-08T02:27:56;8.18;;;4.30;;
57467;SDS011;43311;51.196;7.518;2023-08-08T02:30:22;7.00;;;4.28;;
57467;SDS011;43311;51.196;7.518;2023-08-08T02:32:47;7.13;;;4.53;;
57467;SDS011;43311;51.196;7.518;2023-08-08T02:35:13;6.78;;;4.00;;
57467;SDS011;43311;51.196;7.518;2023-08-08T02:37:38;12.73;;;4.90;;
57467;SDS011;43311;51.196;7.518;2023-08-08T02:40:04;12.60;;;5.57;;
57467;SDS011;43311;51.196;7.518;2023-08-08T02:42:31;8.88;;;4.85;;
57467;SDS011;43311;51.196;7.518;2023-08-08T02:44:56;8.30;;;5.00;;
57467;SDS011;43311;51.196;7.518;2023-08-08T02:47:22;8.05;;;5.35;;
57467;SDS011;43311;51.196;7.518;2023-08-08T02:49:49;11.15;;;5.05;;
57467;SDS011;43311;51.196;7.518;2023-08-08T02:52:15;10.50;;;5.53;;
57467;SDS011;43311;51.196;7.518;2023-08-08T02:54:40;6.78;;;4.90;;
57467;SDS011;43311;51.196;7.518;2023-08-08T02:57:06;7.45;;;5.18;;
57467;SDS011;43311;51.196;7.518;2023-08-08T02:59:31;9.60;;;4.93;;
57467;SDS011;43311;51.196;7.518;2023-08-08T03:01:59;7.63;;;4.72;;
57467;SDS011;43311;51.196;7.518;2023-08-08T03:04:26;7.05;;;4.75;;
57467;SDS011;43311;51.196;7.518;2023-08-08T03:06:51;9.18;;;5.18;;
57467;SDS011;43311;51.196;7.518;2023-08-08T03:09:17;9.95;;;5.05;;
57467;SDS011;43311;51.196;7.518;2023-08-08T03:11:43;8.80;;;5.25;;
57467;SDS011;43311;51.196;7.518;2023-08-08T03:14:12;9.85;;;5.20;;
57467;SDS011;43311;51.196;7.518;2023-08-08T03:16:37;12.77;;;5.45;;
57467;SDS011;43311;51.196;7.518;2023-08-08T03:19:05;8.43;;;4.60;;
57467;SDS011;43311;51.196;7.518;2023-08-08T03:21:31;8.73;;;4.57;;
57467;SDS011;43311;51.196;7.518;2023-08-08T03:23:57;10.65;;;5.22;;
57467;SDS011;43311;51.196;7.518;2023-08-08T03:26:22;8.38;;;5.40;;
57467;SDS011;43311;51.196;7.518;2023-08-08T03:28:48;11.10;;;5.25;;
57467;SDS011;43311;51.196;7.518;2023-08-08T03:31:19;11.80;;;5.38;;
57467;SDS011;43311;51.196;7.518;2023-08-08T03:33:45;11.00;;;4.72;;
57467;SDS011;43311;51.196;7.518;2023-08-08T03:36:12;8.73;;;4.75;;
57467;SDS011;43311;51.196;7.518;2023-08-08T03:38:37;6.93;;;5.32;;
57467;SDS011;43311;51.196;7.518;2023-08-08T03:41:03;9.35;;;5.55;;
57467;SDS011;43311;51.196;7.518;2023-08-08T03:43:29;9.48;;;5.15;;
57467;SDS011;43311;51.196;7.518;2023-08-08T03:45:55;9.05;;;5.45;;
57467;SDS011;43311;51.196;7.518;2023-08-08T03:48:20;8.95;;;5.13;;
57467;SDS011;43311;51.196;7.518;2023-08-08T03:50:46;8.32;;;4.50;;
57467;SDS011;43311;51.196;7.518;2023-08-08T03:53:12;7.05;;;4.43;;
57467;SDS011;43311;51.196;7.518;2023-08-08T03:55:38;8.52;;;4.68;;
57467;SDS011;43311;51.196;7.518;2023-08-08T03:58:03;7.50;;;4.47;;
57467;SDS011;43311;51.196;7.518;2023-08-08T04:00:30;9.02;;;4.47;;
57467;SDS011;43311;51.196;7.518;2023-08-08T04:02:56;8.75;;;4.78;;
57467;SDS011;43311;51.196;7.518;2023-08-08T04:05:21;9.13;;;4.50;;
57467;SDS011;43311;51.196;7.518;2023-08-08T04:07:47;16.83;;;4.72;;
57467;SDS011;43311;51.196;7.518;2023-08-08T04:10:12;8.20;;;4.03;;
57467;SDS011;43311;51.196;7.518;2023-08-08T04:12:38;7.38;;;4.82;;
57467;SDS011;43311;51.196;7.518;2023-08-08T04:15:03;8.13;;;4.45;;
57467;SDS011;43311;51.196;7.518;2023-08-08T04:17:30;10.85;;;4.60;;
57467;SDS011;43311;51.196;7.518;2023-08-08T04:19:55;6.93;;;4.43;;
57467;SDS011;43311;51.196;7.518;2023-08-08T04:22:21;8.98;;;4.30;;
57467;SDS011;43311;51.196;7.518;2023-08-08T04:24:46;7.75;;;4.35;;
57467;SDS011;43311;51.196;7.518;2023-08-08T04:27:11;8.63;;;4.38;;
57467;SDS011;43311;51.196;7.518;2023-08-08T04:29:37;9.20;;;4.18;;
57467;SDS011;43311;51.196;7.518;2023-08-08T04:32:02;8.80;;;4.70;;
57467;SDS011;43311;51.196;7.518;2023-08-08T04:34:28;8.35;;;4.95;;
57467;SDS011;43311;51.196;7.518;2023-08-08T04:36:53;7.03;;;4.55;;
57467;SDS011;43311;51.196;7.518;2023-08-08T04:39:19;8.35;;;4.82;;
57467;SDS011;43311;51.196;7.518;2023-08-08T04:41:44;10.93;;;4.25;;
57467;SDS011;43311;51.196;7.518;2023-08-08T04:44:10;11.75;;;5.47;;
57467;SDS011;43311;51.196;7.518;2023-08-08T04:46:35;7.22;;;3.88;;
57467;SDS011;43311;51.196;7.518;2023-08-08T04:49:01;15.55;;;4.50;;
57467;SDS011;43311;51.196;7.518;2023-08-08T04:51:26;11.15;;;4.70;;
57467;SDS011;43311;51.196;7.518;2023-08-08T04:53:51;9.35;;;4.85;;
57467;SDS011;43311;51.196;7.518;2023-08-08T04:56:17;8.40;;;4.35;;
57467;SDS011;43311;51.196;7.518;2023-08-08T04:58:42;9.23;;;4.88;;
57467;SDS011;43311;51.196;7.518;2023-08-08T05:01:08;8.95;;;5.25;;
57467;SDS011;43311;51.196;7.518;2023-08-08T05:03:36;10.40;;;5.78;;
57467;SDS011;43311;51.196;7.518;2023-08-08T05:06:02;10.52;;;5.18;;
57467;SDS011;43311;51.196;7.518;2023-08-08T05:08:28;14.38;;;6.28;;
57467;SDS011;43311;51.196;7.518;2023-08-08T05:10:54;12.05;;;6.20;;
57467;SDS011;43311;51.196;7.518;2023-08-08T05:13:19;10.00;;;5.82;;
57467;SDS011;43311;51.196;7.518;2023-08-08T05:19:08;19.15;;;7.25;;
57467;SDS011;43311;51.196;7.518;2023-08-08T05:21:43;12.52;;;7.32;;
57467;SDS011;43311;51.196;7.518;2023-08-08T05:24:12;17.88;;;7.68;;
57467;SDS011;43311;51.196;7.518;2023-08-08T05:26:39;15.10;;;7.63;;
57467;SDS011;43311;51.196;7.518;2023-08-08T05:29:15;19.80;;;8.13;;
57467;SDS011;43311;51.196;7.518;2023-08-08T05:31:43;22.77;;;9.60;;
57467;SDS011;43311;51.196;7.518;2023-08-08T05:34:08;18.52;;;8.68;;
57467;SDS011;43311;51.196;7.518;2023-08-08T05:46:42;17.33;;;10.38;;
57467;SDS011;43311;51.196;7.518;2023-08-08T05:49:08;20.83;;;10.68;;
57467;SDS011;43311;51.196;7.518;2023-08-08T05:51:33;24.10;;;12.35;;
57467;SDS011;43311;51.196;7.518;2023-08-08T05:54:00;24.10;;;12.05;;
57467;SDS011;43311;51.196;7.518;2023-08-08T05:56:39;24.17;;;12.05;;
57467;SDS011;43311;51.196;7.518;2023-08-08T05:59:06;23.00;;;10.80;;
57467;SDS011;43311;51.196;7.518;2023-08-08T06:01:37;19.98;;;11.45;;
57467;SDS011;43311;51.196;7.518;2023-08-08T06:04:02;24.88;;;10.77;;
57467;SDS011;43311;51.196;7.518;2023-08-08T06:06:36;23.10;;;10.65;;
57467;SDS011;43311;51.196;7.518;2023-08-08T06:09:01;14.35;;;9.90;;
57467;SDS011;43311;51.196;7.518;2023-08-08T06:11:28;19.65;;;9.85;;
57467;SDS011;43311;51.196;7.518;2023-08-08T06:13:55;18.38;;;10.63;;
57467;SDS011;43311;51.196;7.518;2023-08-08T06:16:21;25.30;;;10.10;;
57467;SDS011;43311;51.196;7.518;2023-08-08T06:18:49;22.80;;;11.80;;
57467;SDS011;43311;51.196;7.518;2023-08-08T06:21:15;22.45;;;12.10;;
57467;SDS011;43311;51.196;7.518;2023-08-08T06:23:42;34.60;;;11.48;;
57467;SDS011;43311;51.196;7.518;2023-08-08T06:26:13;22.63;;;12.80;;
57467;SDS011;43311;51.196;7.518;2023-08-08T06:29:13;22.40;;;11.75;;
57467;SDS011;43311;51.196;7.518;2023-08-08T06:31:39;26.60;;;11.98;;
57467;SDS011;43311;51.196;7.518;2023-08-08T06:34:05;23.25;;;12.52;;
57467;SDS011;43311;51.196;7.518;2023-08-08T06:36:31;25.95;;;12.32;;
57467;SDS011;43311;51.196;7.518;2023-08-08T06:38:56;25.52;;;13.07;;
57467;SDS011;43311;51.196;7.518;2023-08-08T06:41:22;24.83;;;13.20;;
57467;SDS011;43311;51.196;7.518;2023-08-08T06:43:47;30.30;;;12.57;;
57467;SDS011;43311;51.196;7.518;2023-08-08T06:46:12;26.67;;;13.40;;
57467;SDS011;43311;51.196;7.518;2023-08-08T06:48:38;25.83;;;13.35;;
57467;SDS011;43311;51.196;7.518;2023-08-08T06:51:03;24.75;;;13.35;;
57467;SDS011;43311;51.196;7.518;2023-08-08T06:53:29;26.83;;;13.23;;
57467;SDS011;43311;51.196;7.518;2023-08-08T06:55:54;23.10;;;12.95;;
57467;SDS011;43311;51.196;7.518;2023-08-08T06:58:20;25.55;;;14.18;;
57467;SDS011;43311;51.196;7.518;2023-08-08T07:00:45;28.27;;;14.25;;
57467;SDS011;43311;51.196;7.518;2023-08-08T07:03:11;25.60;;;15.23;;
57467;SDS011;43311;51.196;7.518;2023-08-08T07:05:36;27.98;;;14.23;;
57467;SDS011;43311;51.196;7.518;2023-08-08T07:08:03;29.80;;;14.13;;
57467;SDS011;43311;51.196;7.518;2023-08-08T07:10:28;31.90;;;15.25;;
57467;SDS011;43311;51.196;7.518;2023-08-08T07:12:54;29.40;;;14.88;;
57467;SDS011;43311;51.196;7.518;2023-08-08T07:15:20;26.23;;;17.42;;
57467;SDS011;43311;51.196;7.518;2023-08-08T07:17:45;27.70;;;15.23;;
57467;SDS011;43311;51.196;7.518;2023-08-08T07:20:11;35.42;;;15.68;;
57467;SDS011;43311;51.196;7.518;2023-08-08T07:22:38;28.98;;;16.38;;
57467;SDS011;43311;51.196;7.518;2023-08-08T07:25:04;31.50;;;15.63;;
57467;SDS011;43311;51.196;7.518;2023-08-08T07:27:31;34.53;;;15.60;;
57467;SDS011;43311;51.196;7.518;2023-08-08T07:29:56;32.80;;;14.57;;
57467;SDS011;43311;51.196;7.518;2023-08-08T07:32:22;27.52;;;15.25;;
57467;SDS011;43311;51.196;7.518;2023-08-08T07:34:47;27.73;;;15.60;;
57467;SDS011;43311;51.196;7.518;2023-08-08T07:37:13;37.97;;;16.33;;
57467;SDS011;43311;51.196;7.518;2023-08-08T07:39:39;28.17;;;16.40;;
57467;SDS011;43311;51.196;7.518;2023-08-08T07:42:05;22.98;;;15.48;;
57467;SDS011;43311;51.196;7.518;2023-08-08T07:44:30;31.15;;;16.63;;
57467;SDS011;43311;51.196;7.518;2023-08-08T07:46:57;28.92;;;15.35;;
57467;SDS011;43311;51.196;7.518;2023-08-08T07:49:23;30.88;;;15.32;;
57467;SDS011;43311;51.196;7.518;2023-08-08T07:51:48;30.50;;;16.27;;
57467;SDS011;43311;51.196;7.518;2023-08-08T07:54:14;24.90;;;16.40;;
57467;SDS011;43311;51.196;7.518;2023-08-08T07:56:39;33.60;;;17.10;;
57467;SDS011;43311;51.196;7.518;2023-08-08T07:59:04;27.23;;;16.52;;
57467;SDS011;43311;51.196;7.518;2023-08-08T08:01:30;25.02;;;16.45;;
57467;SDS011;43311;51.196;7.518;2023-08-08T08:03:56;25.35;;;14.90;;
57467;SDS011;43311;51.196;7.518;2023-08-08T08:06:21;30.45;;;16.30;;
57467;SDS011;43311;51.196;7.518;2023-08-08T08:08:47;30.38;;;15.65;;
57467;SDS011;43311;51.196;7.518;2023-08-08T08:11:12;26.98;;;15.32;;
57467;SDS011;43311;51.196;7.518;2023-08-08T08:13:38;26.40;;;15.07;;
57467;SDS011;43311;51.196;7.518;2023-08-08T08:16:04;27.30;;;15.13;;
57467;SDS011;43311;51.196;7.518;2023-08-08T08:18:31;26.45;;;14.93;;
57467;SDS011;43311;51.196;7.518;2023-08-08T08:20:57;28.98;;;15.82;;
57467;SDS011;43311;51.196;7.518;2023-08-08T08:23:22;24.60;;;14.27;;
57467;SDS011;43311;51.196;7.518;2023-08-08T08:25:48;24.92;;;14.43;;
57467;SDS011;43311;51.196;7.518;2023-08-08T08:28:14;25.02;;;15.18;;
57467;SDS011;43311;51.196;7.518;2023-08-08T08:30:40;28.10;;;15.20;;
57467;SDS011;43311;51.196;7.518;2023-08-08T08:33:05;21.10;;;13.00;;
57467;SDS011;43311;51.196;7.518;2023-08-08T08:35:33;24.05;;;13.48;;
57467;SDS011;43311;51.196;7.518;2023-08-08T08:38:02;24.48;;;14.05;;
57467;SDS011;43311;51.196;7.518;2023-08-08T08:40:28;22.38;;;13.43;;
57467;SDS011;43311;51.196;7.518;2023-08-08T08:42:58;25.60;;;13.10;;
57467;SDS011;43311;51.196;7.518;2023-08-08T08:45:24;17.85;;;12.65;;
57467;SDS011;43311;51.196;7.518;2023-08-08T08:47:51;21.80;;;12.75;;
57467;SDS011;43311;51.196;7.518;2023-08-08T08:50:19;29.45;;;14.05;;
57467;SDS011;43311;51.196;7.518;2023-08-08T08:52:45;19.15;;;12.00;;
57467;SDS011;43311;51.196;7.518;2023-08-08T08:55:11;24.95;;;13.13;;
57467;SDS011;43311;51.196;7.518;2023-08-08T08:57:36;18.48;;;12.05;;
57467;SDS011;43311;51.196;7.518;2023-08-08T09:00:02;17.25;;;11.35;;
57467;SDS011;43311;51.196;7.518;2023-08-08T09:02:28;19.77;;;10.68;;
57467;SDS011;43311;51.196;7.518;2023-08-08T09:04:54;20.90;;;11.25;;
57467;SDS011;43311;51.196;7.518;2023-08-08T09:07:20;20.65;;;10.48;;
57467;SDS011;43311;51.196;7.518;2023-08-08T09:09:51;16.95;;;9.73;;
57467;SDS011;43311;51.196;7.518;2023-08-08T09:12:17;18.25;;;9.73;;
57467;SDS011;43311;51.196;7.518;2023-08-08T09:14:43;15.98;;;8.98;;
57467;SDS011;43311;51.196;7.518;2023-08-08T09:17:12;16.10;;;8.52;;
57467;SDS011;43311;51.196;7.518;2023-08-08T09:19:41;16.60;;;7.90;;
57467;SDS011;43311;51.196;7.518;2023-08-08T09:22:08;19.35;;;7.82;;
57467;SDS011;43311;51.196;7.518;2023-08-08T09:24:37;19.70;;;7.95;;
57467;SDS011;43311;51.196;7.518;2023-08-08T09:27:04;16.08;;;7.95;;
57467;SDS011;43311;51.196;7.518;2023-08-08T09:29:31;14.13;;;7.32;;
57467;SDS011;43311;51.196;7.518;2023-08-08T09:31:56;18.52;;;8.25;;
57467;SDS011;43311;51.196;7.518;2023-08-08T09:34:24;13.38;;;6.80;;
57467;SDS011;43311;51.196;7.518;2023-08-08T09:36:51;10.95;;;6.50;;
57467;SDS011;43311;51.196;7.518;2023-08-08T09:39:17;10.23;;;5.90;;
57467;SDS011;43311;51.196;7.518;2023-08-08T09:41:45;13.65;;;6.40;;
57467;SDS011;43311;51.196;7.518;2023-08-08T09:44:11;14.60;;;8.10;;
57467;SDS011;43311;51.196;7.518;2023-08-08T09:46:36;10.93;;;6.05;;
57467;SDS011;43311;51.196;7.518;2023-08-08T09:49:03;8.38;;;5.97;;
57467;SDS011;43311;51.196;7.518;2023-08-08T09:51:30;11.52;;;5.22;;
57467;SDS011;43311;51.196;7.518;2023-08-08T09:53:55;13.90;;;6.30;;
57467;SDS011;43311;51.196;7.518;2023-08-08T09:56:21;11.98;;;5.75;;
57467;SDS011;43311;51.196;7.518;2023-08-08T09:58:49;10.23;;;5.33;;
57467;SDS011;43311;51.196;7.518;2023-08-08T10:01:14;12.15;;;5.68;;
57467;SDS011;43311;51.196;7.518;2023-08-08T10:03:40;15.20;;;5.97;;
57467;SDS011;43311;51.196;7.518;2023-08-08T10:06:08;10.45;;;5.57;;
57467;SDS011;43311;51.196;7.518;2023-08-08T10:08:34;12.25;;;6.72;;
57467;SDS011;43311;51.196;7.518;2023-08-08T10:11:00;15.80;;;6.70;;
57467;SDS011;43311;51.196;7.518;2023-08-08T10:13:27;11.43;;;5.90;;
57467;SDS011;43311;51.196;7.518;2023-08-08T10:15:53;14.63;;;7.03;;
57467;SDS011;43311;51.196;7.518;2023-08-08T10:18:22;13.02;;;6.15;;
57467;SDS011;43311;51.196;7.518;2023-08-08T10:20:48;13.45;;;6.35;;
57467;SDS011;43311;51.196;7.518;2023-08-08T10:23:18;13.95;;;6.25;;
57467;SDS011;43311;51.196;7.518;2023-08-08T10:25:51;13.48;;;6.25;;
57467;SDS011;43311;51.196;7.518;2023-08-08T10:28:18;11.30;;;6.20;;
57467;SDS011;43311;51.196;7.518;2023-08-08T10:30:46;14.35;;;6.00;;
57467;SDS011;43311;51.196;7.518;2023-08-08T10:33:20;13.15;;;5.40;;
57467;SDS011;43311;51.196;7.518;2023-08-08T10:35:58;11.02;;;6.05;;
57467;SDS011;43311;51.196;7.518;2023-08-08T10:38:26;14.93;;;5.10;;
57467;SDS011;43311;51.196;7.518;2023-08-08T10:41:04;9.20;;;5.03;;
57467;SDS011;43311;51.196;7.518;2023-08-08T10:43:30;6.22;;;3.90;;
57467;SDS011;43311;51.196;7.518;2023-08-08T10:46:02;8.05;;;3.97;;
57467;SDS011;43311;51.196;7.518;2023-08-08T10:48:29;9.50;;;3.92;;
57467;SDS011;43311;51.196;7.518;2023-08-08T10:50:55;6.22;;;3.30;;
57467;SDS011;43311;51.196;7.518;2023-08-08T10:53:25;8.55;;;3.28;;
57467;SDS011;43311;51.196;7.518;2023-08-08T10:56:02;11.35;;;3.80;;
57467;SDS011;43311;51.196;7.518;2023-08-08T10:58:38;8.13;;;3.95;;
57467;SDS011;43311;51.196;7.518;2023-08-08T11:01:05;7.40;;;3.67;;
57467;SDS011;43311;51.196;7.518;2023-08-08T11:03:39;5.07;;;3.53;;
57467;SDS011;43311;51.196;7.518;2023-08-08T11:06:06;6.30;;;3.47;;
57467;SDS011;43311;51.196;7.518;2023-08-08T11:08:33;5.75;;;3.88;;
57467;SDS011;43311;51.196;7.518;2023-08-08T11:11:01;8.68;;;3.72;;
57467;SDS011;43311;51.196;7.518;2023-08-08T11:13:33;12.02;;;3.97;;
57467;SDS011;43311;51.196;7.518;2023-08-08T11:16:02;8.05;;;3.13;;
57467;SDS011;43311;51.196;7.518;2023-08-08T11:18:27;10.93;;;3.92;;
57467;SDS011;43311;51.196;7.518;2023-08-08T11:20:53;10.38;;;4.68;;
57467;SDS011;43311;51.196;7.518;2023-08-08T11:23:19;10.35;;;4.20;;
57467;SDS011;43311;51.196;7.518;2023-08-08T11:25:46;14.00;;;7.90;;
57467;SDS011;43311;51.196;7.518;2023-08-08T11:28:12;10.45;;;5.72;;
57467;SDS011;43311;51.196;7.518;2023-08-08T11:30:39;11.30;;;6.20;;
57467;SDS011;43311;51.196;7.518;2023-08-08T11:33:07;19.15;;;6.35;;
57467;SDS011;43311;51.196;7.518;2023-08-08T11:35:33;12.20;;;6.40;;
57467;SDS011;43311;51.196;7.518;2023-08-08T11:37:59;14.20;;;6.95;;
57467;SDS011;43311;51.196;7.518;2023-08-08T11:40:26;13.20;;;7.78;;
57467;SDS011;43311;51.196;7.518;2023-08-08T11:42:53;14.60;;;7.65;;
57467;SDS011;43311;51.196;7.518;2023-08-08T11:45:19;14.30;;;7.72;;
57467;SDS011;43311;51.196;7.518;2023-08-08T11:47:50;12.18;;;7.57;;
57467;SDS011;43311;51.196;7.518;2023-08-08T11:50:36;12.88;;;7.00;;
57467;SDS011;43311;51.196;7.518;2023-08-08T11:53:02;9.35;;;5.85;;
57467;SDS011;43311;51.196;7.518;2023-08-08T11:55:29;12.63;;;6.60;;
57467;SDS011;43311;51.196;7.518;2023-08-08T11:57:56;9.13;;;5.32;;
57467;SDS011;43311;51.196;7.518;2023-08-08T12:00:31;9.15;;;4.95;;
57467;SDS011;43311;51.196;7.518;2023-08-08T12:02:57;11.35;;;4.72;;
57467;SDS011;43311;51.196;7.518;2023-08-08T12:05:25;8.77;;;5.07;;
57467;SDS011;43311;51.196;7.518;2023-08-08T12:07:51;6.93;;;4.20;;
57467;SDS011;43311;51.196;7.518;2023-08-08T12:10:26;10.45;;;4.22;;
57467;SDS011;43311;51.196;7.518;2023-08-08T12:12:52;8.40;;;4.80;;
57467;SDS011;43311;51.196;7.518;2023-08-08T12:15:20;8.95;;;4.65;;
57467;SDS011;43311;51.196;7.518;2023-08-08T12:17:45;12.20;;;4.72;;
57467;SDS011;43311;51.196;7.518;2023-08-08T12:20:11;7.43;;;4.13;;
57467;SDS011;43311;51.196;7.518;2023-08-08T12:22:37;9.02;;;4.70;;
57467;SDS011;43311;51.196;7.518;2023-08-08T12:25:02;7.45;;;3.85;;
57467;SDS011;43311;51.196;7.518;2023-08-08T12:27:29;7.72;;;3.95;;
57467;SDS011;43311;51.196;7.518;2023-08-08T12:29:58;7.25;;;3.60;;
57467;SDS011;43311;51.196;7.518;2023-08-08T12:32:26;7.45;;;3.13;;
57467;SDS011;43311;51.196;7.518;2023-08-08T12:34:55;5.60;;;3.88;;
57467;SDS011;43311;51.196;7.518;2023-08-08T12:37:21;6.85;;;4.25;;
57467;SDS011;43311;51.196;7.518;2023-08-08T12:39:48;6.57;;;3.67;;
57467;SDS011;43311;51.196;7.518;2023-08-08T12:42:14;9.43;;;3.53;;
57467;SDS011;43311;51.196;7.518;2023-08-08T12:44:39;6.63;;;3.45;;
57467;SDS011;43311;51.196;7.518;2023-08-08T12:47:05;8.40;;;2.90;;
57467;SDS011;43311;51.196;7.518;2023-08-08T12:49:30;6.05;;;2.88;;
57467;SDS011;43311;51.196;7.518;2023-08-08T12:51:56;7.05;;;2.92;;
57467;SDS011;43311;51.196;7.518;2023-08-08T12:54:21;8.30;;;3.05;;
57467;SDS011;43311;51.196;7.518;2023-08-08T12:56:47;6.95;;;3.20;;
57467;SDS011;43311;51.196;7.518;2023-08-08T12:59:13;6.15;;;2.55;;
57467;SDS011;43311;51.196;7.518;2023-08-08T13:01:38;10.15;;;3.17;;
57467;SDS011;43311;51.196;7.518;2023-08-08T13:04:04;8.70;;;3.13;;
57467;SDS011;43311;51.196;7.518;2023-08-08T13:06:30;4.90;;;3.00;;
57467;SDS011;43311;51.196;7.518;2023-08-08T13:08:56;7.15;;;3.22;;
57467;SDS011;43311;51.196;7.518;2023-08-08T13:11:21;4.22;;;2.88;;
57467;SDS011;43311;51.196;7.518;2023-08-08T13:13:47;8.90;;;2.80;;
57467;SDS011;43311;51.196;7.518;2023-08-08T13:16:12;6.80;;;2.75;;
57467;SDS011;43311;51.196;7.518;2023-08-08T13:18:39;7.07;;;3.05;;
57467;SDS011;43311;51.196;7.518;2023-08-08T13:21:05;4.68;;;2.70;;
57467;SDS011;43311;51.196;7.518;2023-08-08T13:23:31;5.07;;;2.60;;
57467;SDS011;43311;51.196;7.518;2023-08-08T13:26:00;4.07;;;2.70;;
57467;SDS011;43311;51.196;7.518;2023-08-08T13:28:26;5.53;;;2.90;;
57467;SDS011;43311;51.196;7.518;2023-08-08T13:30:52;6.28;;;2.90;;
57467;SDS011;43311;51.196;7.518;2023-08-08T13:33:18;5.78;;;3.20;;
57467;SDS011;43311;51.196;7.518;2023-08-08T13:35:43;4.30;;;2.95;;
57467;SDS011;43311;51.196;7.518;2023-08-08T13:38:09;4.28;;;3.00;;
57467;SDS011;43311;51.196;7.518;2023-08-08T13:40:42;5.35;;;2.80;;
57467;SDS011;43311;51.196;7.518;2023-08-08T13:43:08;5.32;;;3.40;;
57467;SDS011;43311;51.196;7.518;2023-08-08T13:45:34;9.27;;;3.25;;
57467;SDS011;43311;51.196;7.518;2023-08-08T13:47:59;6.63;;;3.80;;
57467;SDS011;43311;51.196;7.518;2023-08-08T13:50:25;6.13;;;3.58;;
57467;SDS011;43311;51.196;7.518;2023-08-08T13:52:50;6.03;;;3.67;;
57467;SDS011;43311;51.196;7.518;2023-08-08T13:55:17;7.25;;;3.78;;
57467;SDS011;43311;51.196;7.518;2023-08-08T13:57:43;12.50;;;6.15;;
57467;SDS011;43311;51.196;7.518;2023-08-08T14:00:09;9.90;;;4.53;;
57467;SDS011;43311;51.196;7.518;2023-08-08T14:02:37;7.80;;;4.50;;
57467;SDS011;43311;51.196;7.518;2023-08-08T14:05:03;10.90;;;4.18;;
57467;SDS011;43311;51.196;7.518;2023-08-08T14:07:32;6.55;;;4.10;;
57467;SDS011;43311;51.196;7.518;2023-08-08T14:09:58;6.97;;;4.50;;
57467;SDS011;43311;51.196;7.518;2023-08-08T14:12:24;9.52;;;4.43;;
57467;SDS011;43311;51.196;7.518;2023-08-08T14:14:50;10.98;;;4.70;;
57467;SDS011;43311;51.196;7.518;2023-08-08T14:17:15;9.02;;;5.05;;
57467;SDS011;43311;51.196;7.518;2023-08-08T14:19:41;6.88;;;4.03;;
57467;SDS011;43311;51.196;7.518;2023-08-08T14:22:06;9.88;;;4.53;;
57467;SDS011;43311;51.196;7.518;2023-08-08T14:24:31;8.73;;;4.68;;
57467;SDS011;43311;51.196;7.518;2023-08-08T14:26:57;8.80;;;4.15;;
57467;SDS011;43311;51.196;7.518;2023-08-08T14:29:22;9.07;;;4.30;;
57467;SDS011;43311;51.196;7.518;2023-08-08T14:31:48;6.78;;;4.28;;
57467;SDS011;43311;51.196;7.518;2023-08-08T14:34:14;11.88;;;5.15;;
57467;SDS011;43311;51.196;7.518;2023-08-08T14:36:42;11.35;;;4.65;;
57467;SDS011;43311;51.196;7.518;2023-08-08T14:39:08;6.95;;;4.30;;
57467;SDS011;43311;51.196;7.518;2023-08-08T14:41:33;5.82;;;3.90;;
57467;SDS011;43311;51.196;7.518;2023-08-08T14:43:59;12.98;;;4.78;;
57467;SDS011;43311;51.196;7.518;2023-08-08T14:46:24;9.65;;;4.32;;
57467;SDS011;43311;51.196;7.518;2023-08-08T14:48:58;9.23;;;4.45;;
57467;SDS011;43311;51.196;7.518;2023-08-08T14:51:24;9.23;;;5.30;;